createdAt,value
2018-12-26T00:00:32.501Z,23.60
2018-12-26T00:01:32.500Z,22.90
2018-12-26T00:02:32.449Z,23.60
2018-12-26T00:03:32.425Z,24.00
2018-12-26T00:04:32.406Z,23.80
2018-12-26T00:05:32.388Z,22.90
2018-12-26T00:06:32.348Z,23.40
2018-12-26T00:07:32.327Z,24.00
2018-12-26T00:08:32.307Z,23.80
2018-12-26T00:09:32.275Z,25.10
2018-12-26T00:10:32.253Z,22.90
2018-12-26T00:11:32.230Z,24.10
2018-12-26T00:12:32.202Z,23.10
2018-12-26T00:13:32.170Z,23.80
2018-12-26T00:14:32.151Z,25.80
2018-12-26T00:15:32.119Z,22.80
2018-12-26T00:16:32.095Z,24.50
2018-12-26T00:17:32.068Z,23.00
2018-12-26T00:18:32.062Z,23.50
2018-12-26T00:19:32.059Z,23.00
2018-12-26T00:20:31.990Z,24.40
2018-12-26T00:21:31.966Z,24.70
2018-12-26T00:22:31.988Z,24.50
2018-12-26T00:23:31.912Z,24.00
2018-12-26T00:24:31.887Z,24.10
2018-12-26T00:25:31.861Z,24.70
2018-12-26T00:26:31.849Z,23.80
2018-12-26T00:27:31.810Z,23.80
2018-12-26T00:28:31.783Z,24.70
2018-12-26T00:29:31.764Z,23.10
2018-12-26T00:30:31.737Z,24.80
2018-12-26T00:31:31.710Z,23.90
2018-12-26T00:32:31.684Z,27.00
2018-12-26T00:33:31.668Z,23.50
2018-12-26T00:34:31.631Z,23.90
2018-12-26T00:35:31.603Z,23.90
2018-12-26T00:36:31.575Z,23.90
2018-12-26T00:37:31.552Z,24.30
2018-12-26T00:38:31.525Z,24.20
2018-12-26T00:39:31.501Z,23.50
2018-12-26T00:40:31.484Z,24.10
2018-12-26T00:41:31.447Z,24.50
2018-12-26T00:42:31.423Z,23.80
2018-12-26T00:43:31.395Z,24.60
2018-12-26T00:44:31.370Z,23.80
2018-12-26T00:45:31.343Z,25.60
2018-12-26T00:46:31.319Z,24.60
2018-12-26T00:47:31.296Z,24.40
2018-12-26T00:48:31.265Z,24.30
2018-12-26T00:49:31.248Z,24.40
2018-12-26T00:50:31.220Z,25.30
2018-12-26T00:51:31.207Z,25.60
2018-12-26T00:52:31.168Z,25.50
2018-12-26T00:53:31.137Z,24.20
2018-12-26T00:54:31.120Z,24.80
2018-12-26T00:55:31.094Z,25.70
2018-12-26T00:56:31.074Z,25.80
2018-12-26T00:57:31.034Z,26.00
2018-12-26T00:58:31.008Z,26.10
2018-12-26T00:59:30.983Z,25.40
2018-12-26T01:00:30.963Z,26.60
2018-12-26T01:01:30.934Z,26.40
2018-12-26T01:02:30.922Z,26.20
2018-12-26T01:03:30.877Z,25.50
2018-12-26T01:04:30.856Z,26.20
2018-12-26T01:05:30.843Z,27.70
2018-12-26T01:06:30.800Z,26.90
2018-12-26T01:07:30.776Z,24.30
2018-12-26T01:08:30.750Z,26.00
2018-12-26T01:09:30.724Z,26.20
2018-12-26T01:10:30.697Z,26.30
2018-12-26T01:11:30.677Z,26.70
2018-12-26T01:12:30.647Z,27.40
2018-12-26T01:13:30.625Z,27.30
2018-12-26T01:14:30.595Z,28.00
2018-12-26T01:15:30.570Z,26.90
2018-12-26T01:16:30.542Z,27.10
2018-12-26T01:17:30.522Z,28.20
2018-12-26T01:18:30.490Z,27.10
2018-12-26T01:19:30.466Z,27.60
2018-12-26T01:20:30.440Z,28.30
2018-12-26T01:21:30.426Z,27.10
2018-12-26T01:22:30.395Z,28.40
2018-12-26T01:23:30.363Z,28.50
2018-12-26T01:24:30.340Z,28.60
2018-12-26T01:25:30.317Z,27.00
2018-12-26T01:26:30.287Z,27.00
2018-12-26T01:27:30.260Z,27.60
2018-12-26T01:28:30.234Z,27.80
2018-12-26T01:29:30.209Z,28.60
2018-12-26T01:30:30.182Z,28.40
2018-12-26T01:31:30.155Z,28.50
2018-12-26T01:32:30.130Z,27.50
2018-12-26T01:33:30.123Z,28.20
2018-12-26T01:34:30.079Z,28.70
2018-12-26T01:35:30.051Z,29.80
2018-12-26T01:36:30.029Z,30.20
2018-12-26T01:37:30.003Z,29.40
2018-12-26T01:38:29.977Z,30.50
2018-12-26T01:39:29.961Z,30.40
2018-12-26T01:40:29.926Z,28.20
2018-12-26T01:41:29.900Z,30.80
2018-12-26T01:42:29.871Z,29.90
2018-12-26T01:43:29.846Z,28.50
2018-12-26T01:44:29.821Z,29.40
2018-12-26T01:45:29.796Z,29.80
2018-12-26T01:46:29.777Z,30.30
2018-12-26T01:47:29.747Z,32.10
2018-12-26T01:48:29.721Z,31.00
2018-12-26T01:49:29.790Z,30.30
2018-12-26T01:50:29.666Z,32.40
2018-12-26T01:51:29.641Z,30.30
2018-12-26T01:52:29.616Z,31.70
2018-12-26T01:53:29.599Z,30.20
2018-12-26T01:54:29.568Z,30.80
2018-12-26T01:55:29.534Z,30.90
2018-12-26T01:56:29.510Z,30.70
2018-12-26T01:57:29.483Z,30.90
2018-12-26T01:58:29.456Z,30.60
2018-12-26T01:59:29.432Z,32.00
2018-12-26T02:00:29.407Z,30.30
2018-12-26T02:01:29.388Z,31.40
2018-12-26T02:02:29.362Z,31.10
2018-12-26T02:03:29.330Z,31.10
2018-12-26T02:04:29.304Z,32.40
2018-12-26T02:05:29.277Z,31.10
2018-12-26T02:06:29.253Z,31.80
2018-12-26T02:07:29.225Z,32.10
2018-12-26T02:08:29.200Z,31.50
2018-12-26T02:09:29.174Z,31.10
2018-12-26T02:10:29.153Z,31.50
2018-12-26T02:11:29.123Z,33.10
2018-12-26T02:12:29.105Z,32.30
2018-12-26T02:13:29.071Z,31.70
2018-12-26T02:14:29.044Z,32.90
2018-12-26T02:15:29.017Z,32.00
2018-12-26T02:16:28.991Z,32.50
2018-12-26T02:17:28.967Z,33.10
2018-12-26T02:18:28.940Z,31.60
2018-12-26T02:19:28.914Z,31.60
2018-12-26T02:20:28.889Z,32.30
2018-12-26T02:21:28.863Z,34.90
2018-12-26T02:22:28.845Z,32.70
2018-12-26T02:23:28.812Z,33.30
2018-12-26T02:24:28.786Z,33.30
2018-12-26T02:25:28.759Z,33.10
2018-12-26T02:26:36.249Z,33.10
2018-12-26T02:27:28.708Z,33.70
2018-12-26T02:28:28.681Z,33.00
2018-12-26T02:29:28.657Z,33.70
2018-12-26T02:30:28.629Z,35.10
2018-12-26T02:31:28.707Z,33.70
2018-12-26T02:32:30.397Z,32.40
2018-12-26T02:33:28.551Z,33.40
2018-12-26T02:34:28.528Z,31.80
2018-12-26T02:35:28.502Z,34.10
2018-12-26T02:36:28.475Z,34.00
2018-12-26T02:37:28.447Z,33.90
2018-12-26T02:38:28.424Z,33.50
2018-12-26T02:39:28.394Z,34.00
2018-12-26T02:40:28.371Z,35.00
2018-12-26T02:41:28.344Z,33.50
2018-12-26T02:42:28.318Z,35.90
2018-12-26T02:43:28.291Z,33.40
2018-12-26T02:44:28.266Z,34.80
2018-12-26T02:45:28.241Z,35.30
2018-12-26T02:46:28.214Z,34.70
2018-12-26T02:47:28.186Z,33.80
2018-12-26T02:48:28.163Z,34.40
2018-12-26T02:49:28.135Z,34.30
2018-12-26T02:50:28.108Z,34.90
2018-12-26T02:51:28.085Z,33.90
2018-12-26T02:52:28.059Z,34.80
2018-12-26T02:53:28.031Z,33.40
2018-12-26T02:54:28.004Z,33.60
2018-12-26T02:55:27.979Z,33.00
2018-12-26T02:56:27.958Z,33.50
2018-12-26T02:57:27.928Z,35.50
2018-12-26T02:58:27.902Z,36.70
2018-12-26T02:59:27.875Z,35.40
2018-12-26T03:00:27.854Z,36.20
2018-12-26T03:01:27.824Z,35.30
2018-12-26T03:02:27.797Z,34.20
2018-12-26T03:03:27.771Z,36.80
2018-12-26T03:04:27.745Z,36.30
2018-12-26T03:05:27.717Z,35.10
2018-12-26T03:06:27.694Z,35.00
2018-12-26T03:07:27.678Z,34.20
2018-12-26T03:08:27.659Z,36.20
2018-12-26T03:09:27.639Z,36.80
2018-12-26T03:10:27.605Z,35.60
2018-12-26T03:11:27.567Z,35.60
2018-12-26T03:12:27.561Z,35.70
2018-12-26T03:13:27.512Z,34.10
2018-12-26T03:14:27.487Z,36.70
2018-12-26T03:15:27.469Z,36.40
2018-12-26T03:16:27.432Z,36.30
2018-12-26T03:17:27.412Z,37.30
2018-12-26T03:18:27.380Z,36.40
2018-12-26T03:19:27.356Z,37.20
2018-12-26T03:20:27.329Z,36.50
2018-12-26T03:21:27.302Z,35.40
2018-12-26T03:22:27.278Z,36.20
2018-12-26T03:23:27.255Z,36.20
2018-12-26T03:24:27.223Z,36.20
2018-12-26T03:25:27.204Z,37.40
2018-12-26T03:26:27.181Z,37.00
2018-12-26T03:27:27.146Z,36.80
2018-12-26T03:28:27.121Z,36.80
2018-12-26T03:29:27.094Z,37.40
2018-12-26T03:30:27.090Z,36.20
2018-12-26T03:31:27.054Z,37.70
2018-12-26T03:32:27.016Z,35.10
2018-12-26T03:33:27.003Z,36.70
2018-12-26T03:34:26.966Z,37.50
2018-12-26T03:35:26.940Z,37.40
2018-12-26T03:36:26.912Z,37.50
2018-12-26T03:37:26.886Z,37.60
2018-12-26T03:38:26.870Z,37.00
2018-12-26T03:39:26.833Z,35.60
2018-12-26T03:40:26.807Z,35.80
2018-12-26T03:41:26.783Z,38.70
2018-12-26T03:42:26.753Z,35.30
2018-12-26T03:43:26.726Z,36.80
2018-12-26T03:44:26.718Z,36.80
2018-12-26T03:45:26.675Z,37.60
2018-12-26T03:46:26.658Z,36.70
2018-12-26T03:47:26.622Z,37.00
2018-12-26T03:48:26.597Z,37.60
2018-12-26T03:49:26.570Z,38.50
2018-12-26T03:50:26.544Z,37.30
2018-12-26T03:51:26.517Z,36.30
2018-12-26T03:52:26.495Z,37.70
2018-12-26T03:53:26.472Z,37.90
2018-12-26T03:54:26.440Z,37.80
2018-12-26T03:55:26.419Z,36.00
2018-12-26T03:56:26.388Z,38.70
2018-12-26T03:57:26.364Z,36.70
2018-12-26T03:58:26.334Z,38.00
2018-12-26T03:59:26.320Z,36.90
2018-12-26T04:00:26.287Z,36.40
2018-12-26T04:01:26.258Z,39.10
2018-12-26T04:02:26.235Z,38.70
2018-12-26T04:03:26.207Z,38.80
2018-12-26T04:04:26.181Z,38.50
2018-12-26T04:05:26.157Z,38.60
2018-12-26T04:06:26.139Z,37.50
2018-12-26T04:07:26.103Z,38.60
2018-12-26T04:08:26.074Z,38.10
2018-12-26T04:09:26.050Z,36.80
2018-12-26T04:10:26.024Z,38.00
2018-12-26T04:11:26.005Z,40.20
2018-12-26T04:12:25.974Z,38.80
2018-12-26T04:13:25.949Z,37.80
2018-12-26T04:14:25.919Z,37.10
2018-12-26T04:15:25.892Z,37.90
2018-12-26T04:16:25.881Z,39.60
2018-12-26T04:17:25.849Z,36.90
2018-12-26T04:18:25.823Z,38.10
2018-12-26T04:19:25.797Z,39.10
2018-12-26T04:20:25.759Z,38.50
2018-12-26T04:21:25.738Z,37.40
2018-12-26T04:22:25.714Z,37.30
2018-12-26T04:23:25.684Z,36.90
2018-12-26T04:24:25.703Z,37.90
2018-12-26T04:25:25.634Z,37.60
2018-12-26T04:26:25.607Z,36.60
2018-12-26T04:27:25.580Z,38.40
2018-12-26T04:28:25.550Z,39.00
2018-12-26T04:29:25.531Z,36.70
2018-12-26T04:30:25.500Z,36.60
2018-12-26T04:31:25.477Z,36.70
2018-12-26T04:32:25.445Z,38.60
2018-12-26T04:33:25.425Z,38.30
2018-12-26T04:34:25.393Z,38.30
2018-12-26T04:35:25.367Z,39.20
2018-12-26T04:36:25.340Z,40.40
2018-12-26T04:37:25.316Z,38.10
2018-12-26T04:38:25.290Z,38.30
2018-12-26T04:39:25.269Z,39.30
2018-12-26T04:40:25.236Z,38.00
2018-12-26T04:41:25.211Z,39.10
2018-12-26T04:42:25.185Z,37.60
2018-12-26T04:43:25.158Z,38.20
2018-12-26T04:44:25.143Z,39.50
2018-12-26T04:45:25.105Z,39.70
2018-12-26T04:46:25.080Z,36.90
2018-12-26T04:47:25.053Z,37.00
2018-12-26T04:48:25.028Z,38.40
2018-12-26T04:49:25.007Z,38.00
2018-12-26T04:50:24.975Z,37.30
2018-12-26T04:51:24.950Z,39.60
2018-12-26T04:52:24.937Z,39.00
2018-12-26T04:53:24.898Z,36.90
2018-12-26T04:54:24.872Z,39.30
2018-12-26T04:55:24.849Z,39.70
2018-12-26T04:56:24.823Z,38.40
2018-12-26T04:57:25.237Z,39.40
2018-12-26T04:58:24.765Z,35.50
2018-12-26T04:59:24.739Z,38.50
2018-12-26T05:00:24.711Z,39.70
2018-12-26T05:01:24.686Z,39.00
2018-12-26T05:02:24.660Z,38.90
2018-12-26T05:03:24.639Z,38.30
2018-12-26T05:04:24.608Z,37.40
2018-12-26T05:05:24.581Z,40.10
2018-12-26T05:06:24.557Z,38.80
2018-12-26T05:07:24.532Z,39.80
2018-12-26T05:08:24.503Z,39.50
2018-12-26T05:09:24.477Z,38.70
2018-12-26T05:10:24.449Z,38.40
2018-12-26T05:11:24.425Z,39.20
2018-12-26T05:12:24.407Z,40.50
2018-12-26T05:13:24.374Z,37.20
2018-12-26T05:14:24.346Z,38.80
2018-12-26T05:15:24.319Z,38.80
2018-12-26T05:16:24.297Z,37.40
2018-12-26T05:17:24.266Z,37.40
2018-12-26T05:18:24.242Z,37.70
2018-12-26T05:19:24.217Z,38.50
2018-12-26T05:20:24.193Z,37.70
2018-12-26T05:21:24.163Z,39.80
2018-12-26T05:22:24.137Z,40.20
2018-12-26T05:23:24.114Z,38.90
2018-12-26T05:24:24.093Z,39.20
2018-12-26T05:25:24.060Z,37.70
2018-12-26T05:26:24.041Z,38.10
2018-12-26T05:27:24.007Z,38.30
2018-12-26T05:28:23.992Z,39.50
2018-12-26T05:29:23.955Z,39.60
2018-12-26T05:30:23.930Z,38.50
2018-12-26T05:31:23.904Z,38.80
2018-12-26T05:32:23.877Z,37.30
2018-12-26T05:33:23.851Z,38.50
2018-12-26T05:34:23.825Z,38.40
2018-12-26T05:35:23.910Z,38.70
2018-12-26T05:36:23.772Z,40.40
2018-12-26T05:37:23.745Z,39.70
2018-12-26T05:38:23.732Z,37.50
2018-12-26T05:39:23.694Z,39.80
2018-12-26T05:40:23.671Z,38.00
2018-12-26T05:41:23.643Z,39.70
2018-12-26T05:42:23.622Z,38.70
2018-12-26T05:43:23.590Z,37.90
2018-12-26T05:44:23.565Z,37.50
2018-12-26T05:45:23.538Z,37.10
2018-12-26T05:46:23.515Z,38.80
2018-12-26T05:47:23.486Z,39.40
2018-12-26T05:48:23.460Z,37.00
2018-12-26T05:49:23.437Z,38.20
2018-12-26T05:50:23.407Z,36.30
2018-12-26T05:51:23.383Z,38.70
2018-12-26T05:52:23.355Z,37.40
2018-12-26T05:53:23.330Z,40.00
2018-12-26T05:54:23.307Z,37.90
2018-12-26T05:55:23.278Z,37.50
2018-12-26T05:56:23.252Z,39.30
2018-12-26T05:57:23.227Z,41.30
2018-12-26T05:58:23.200Z,38.20
2018-12-26T05:59:23.174Z,39.40
2018-12-26T06:00:23.148Z,38.60
2018-12-26T06:01:23.122Z,39.30
2018-12-26T06:02:23.093Z,37.90
2018-12-26T06:03:23.069Z,38.50
2018-12-26T06:04:23.048Z,38.40
2018-12-26T06:05:23.018Z,37.60
2018-12-26T06:06:22.991Z,37.70
2018-12-26T06:07:22.966Z,38.40
2018-12-26T06:08:22.941Z,40.20
2018-12-26T06:09:22.917Z,40.60
2018-12-26T06:10:22.887Z,40.90
2018-12-26T06:11:22.862Z,41.10
2018-12-26T06:12:22.837Z,40.70
2018-12-26T06:13:22.812Z,39.70
2018-12-26T06:14:22.787Z,40.50
2018-12-26T06:15:22.760Z,40.30
2018-12-26T06:16:22.743Z,39.00
2018-12-26T06:17:22.706Z,41.30
2018-12-26T06:18:22.681Z,40.60
2018-12-26T06:19:22.655Z,42.00
2018-12-26T06:20:22.629Z,40.60
2018-12-26T06:21:22.602Z,40.20
2018-12-26T06:22:22.575Z,40.10
2018-12-26T06:23:22.552Z,40.10
2018-12-26T06:24:22.532Z,41.40
2018-12-26T06:25:22.498Z,40.00
2018-12-26T06:26:22.473Z,40.50
2018-12-26T06:27:22.447Z,42.50
2018-12-26T06:28:22.427Z,41.60
2018-12-26T06:29:22.400Z,42.60
2018-12-26T06:30:22.366Z,42.60
2018-12-26T06:31:22.345Z,42.10
2018-12-26T06:32:24.117Z,42.00
2018-12-26T06:33:22.291Z,43.50
2018-12-26T06:34:22.263Z,41.80
2018-12-26T06:35:22.238Z,43.10
2018-12-26T06:36:22.212Z,41.80
2018-12-26T06:37:22.185Z,43.20
2018-12-26T06:38:22.159Z,45.70
2018-12-26T06:39:22.133Z,43.00
2018-12-26T06:40:22.114Z,46.60
2018-12-26T06:41:22.088Z,42.60
2018-12-26T06:42:22.056Z,44.50
2018-12-26T06:43:22.031Z,43.70
2018-12-26T06:44:22.004Z,42.70
2018-12-26T06:45:21.977Z,43.90
2018-12-26T06:46:21.950Z,43.20
2018-12-26T06:47:21.924Z,43.20
2018-12-26T06:48:21.899Z,43.50
2018-12-26T06:49:21.874Z,43.00
2018-12-26T06:50:21.846Z,43.00
2018-12-26T06:51:21.822Z,43.00
2018-12-26T06:52:21.799Z,42.30
2018-12-26T06:53:21.776Z,44.60
2018-12-26T06:54:21.744Z,45.00
2018-12-26T06:55:21.719Z,42.90
2018-12-26T06:56:21.690Z,44.00
2018-12-26T06:57:21.665Z,43.10
2018-12-26T06:58:21.639Z,41.40
2018-12-26T06:59:21.612Z,41.20
2018-12-26T07:00:21.590Z,42.50
2018-12-26T07:01:21.561Z,42.30
2018-12-26T07:02:21.534Z,42.10
2018-12-26T07:03:21.513Z,42.60
2018-12-26T07:04:21.482Z,43.50
2018-12-26T07:05:21.456Z,41.10
2018-12-26T07:06:21.429Z,41.90
2018-12-26T07:07:21.405Z,41.70
2018-12-26T07:08:21.377Z,42.30
2018-12-26T07:09:21.356Z,42.20
2018-12-26T07:10:21.328Z,42.50
2018-12-26T07:11:21.300Z,42.60
2018-12-26T07:12:21.282Z,41.40
2018-12-26T07:13:21.263Z,41.20
2018-12-26T07:14:21.223Z,41.40
2018-12-26T07:15:21.195Z,42.20
2018-12-26T07:16:21.169Z,42.50
2018-12-26T07:17:21.143Z,41.30
2018-12-26T07:18:21.117Z,41.30
2018-12-26T07:19:21.098Z,40.10
2018-12-26T07:20:21.069Z,40.00
2018-12-26T07:21:21.046Z,42.70
2018-12-26T07:22:21.011Z,42.80
2018-12-26T07:23:20.987Z,42.30
2018-12-26T07:24:20.962Z,41.50
2018-12-26T07:25:20.934Z,41.50
2018-12-26T07:26:20.909Z,41.90
2018-12-26T07:27:20.883Z,41.30
2018-12-26T07:28:20.857Z,42.00
2018-12-26T07:29:20.838Z,41.90
2018-12-26T07:30:20.805Z,41.00
2018-12-26T07:31:20.778Z,41.00
2018-12-26T07:32:20.760Z,42.30
2018-12-26T07:33:20.749Z,42.90
2018-12-26T07:34:20.701Z,42.50
2018-12-26T07:35:20.675Z,40.90
2018-12-26T07:36:20.647Z,42.30
2018-12-26T07:37:20.623Z,43.40
2018-12-26T07:38:20.601Z,42.00
2018-12-26T07:39:20.570Z,42.50
2018-12-26T07:40:20.551Z,42.40
2018-12-26T07:41:20.517Z,43.00
2018-12-26T07:42:20.513Z,43.20
2018-12-26T07:43:20.465Z,42.30
2018-12-26T07:44:20.442Z,42.60
2018-12-26T07:45:20.418Z,43.20
2018-12-26T07:46:20.394Z,44.00
2018-12-26T07:47:20.362Z,43.50
2018-12-26T07:48:20.343Z,44.30
2018-12-26T07:49:20.312Z,44.40
2018-12-26T07:50:20.283Z,43.90
2018-12-26T07:51:20.258Z,44.80
2018-12-26T07:52:20.233Z,44.00
2018-12-26T07:53:20.209Z,44.50
2018-12-26T07:54:20.763Z,44.50
2018-12-26T07:55:20.155Z,43.90
2018-12-26T07:56:20.139Z,44.70
2018-12-26T07:57:20.108Z,44.80
2018-12-26T07:58:20.073Z,47.10
2018-12-26T07:59:20.047Z,45.70
2018-12-26T08:00:20.031Z,45.50
2018-12-26T08:01:20.001Z,47.30
2018-12-26T08:02:19.972Z,45.60
2018-12-26T08:03:19.944Z,46.50
2018-12-26T08:04:19.920Z,44.30
2018-12-26T08:05:19.892Z,45.00
2018-12-26T08:06:19.864Z,46.50
2018-12-26T08:07:19.838Z,46.50
2018-12-26T08:08:19.820Z,46.30
2018-12-26T08:09:19.784Z,46.70
2018-12-26T08:10:19.768Z,45.00
2018-12-26T08:11:19.744Z,46.10
2018-12-26T08:12:19.711Z,47.30
2018-12-26T08:13:19.682Z,49.50
2018-12-26T08:14:19.652Z,48.70
2018-12-26T08:15:19.626Z,47.40
2018-12-26T08:16:19.609Z,48.70
2018-12-26T08:17:19.582Z,50.90
2018-12-26T08:18:19.552Z,50.10
2018-12-26T08:19:19.523Z,48.30
2018-12-26T08:20:19.497Z,52.00
2018-12-26T08:21:19.471Z,54.70
2018-12-26T08:22:19.443Z,53.40
2018-12-26T08:23:19.425Z,50.10
2018-12-26T08:24:19.394Z,51.30
2018-12-26T08:25:19.364Z,52.10
2018-12-26T08:26:19.338Z,52.90
2018-12-26T08:27:19.310Z,51.40
2018-12-26T08:28:26.453Z,51.20
2018-12-26T08:29:19.260Z,55.20
2018-12-26T08:30:19.240Z,52.40
2018-12-26T08:31:19.209Z,52.20
2018-12-26T08:32:19.181Z,53.50
2018-12-26T08:33:19.154Z,51.70
2018-12-26T08:34:19.139Z,53.60
2018-12-26T08:35:19.103Z,53.40
2018-12-26T08:36:19.080Z,52.90
2018-12-26T08:37:19.053Z,50.90
2018-12-26T08:38:19.028Z,54.80
2018-12-26T08:39:18.999Z,52.70
2018-12-26T08:40:18.977Z,50.40
2018-12-26T08:41:18.949Z,51.60
2018-12-26T08:42:18.921Z,54.20
2018-12-26T08:43:18.894Z,54.00
2018-12-26T08:44:18.878Z,51.70
2018-12-26T08:45:18.853Z,54.00
2018-12-26T08:46:18.914Z,50.70
2018-12-26T08:47:18.790Z,52.50
2018-12-26T08:48:18.764Z,53.30
2018-12-26T08:49:18.737Z,58.00
2018-12-26T08:50:18.712Z,51.00
2018-12-26T08:51:18.698Z,53.70
2018-12-26T08:52:18.660Z,53.10
2018-12-26T08:53:18.636Z,49.70
2018-12-26T08:54:18.606Z,51.80
2018-12-26T08:55:18.582Z,50.90
2018-12-26T08:56:18.568Z,52.10
2018-12-26T08:57:18.528Z,50.80
2018-12-26T08:58:18.502Z,52.90
2018-12-26T08:59:18.476Z,52.40
2018-12-26T09:00:18.450Z,51.40
2018-12-26T09:01:18.423Z,53.50
2018-12-26T09:02:18.402Z,52.50
2018-12-26T09:03:18.371Z,54.10
2018-12-26T09:04:18.369Z,54.20
2018-12-26T09:05:18.317Z,54.00
2018-12-26T09:06:18.295Z,57.10
2018-12-26T09:07:18.266Z,55.50
2018-12-26T09:08:18.246Z,52.70
2018-12-26T09:09:18.214Z,51.80
2018-12-26T09:10:18.193Z,53.00
2018-12-26T09:11:18.163Z,52.70
2018-12-26T09:12:18.141Z,57.90
2018-12-26T09:13:18.115Z,53.80
2018-12-26T09:14:18.084Z,53.40
2018-12-26T09:15:18.065Z,54.60
2018-12-26T09:16:18.032Z,61.00
2018-12-26T09:17:18.007Z,57.30
2018-12-26T09:18:17.980Z,54.20
2018-12-26T09:19:17.954Z,59.80
2018-12-26T09:20:17.929Z,55.70
2018-12-26T09:21:17.909Z,55.40
2018-12-26T09:22:17.877Z,54.80
2018-12-26T09:23:17.855Z,54.20
2018-12-26T09:24:17.829Z,53.30
2018-12-26T09:25:17.807Z,58.20
2018-12-26T09:26:17.777Z,67.60
2018-12-26T09:27:17.748Z,56.80
2018-12-26T09:28:17.723Z,56.60
2018-12-26T09:29:17.701Z,54.60
2018-12-26T09:30:17.670Z,63.10
2018-12-26T09:31:17.646Z,55.20
2018-12-26T09:32:17.626Z,59.50
2018-12-26T09:33:17.593Z,56.30
2018-12-26T09:34:17.564Z,55.80
2018-12-26T09:35:17.538Z,55.70
2018-12-26T09:36:17.513Z,53.00
2018-12-26T09:37:17.487Z,54.80
2018-12-26T09:38:17.460Z,56.60
2018-12-26T09:39:17.441Z,61.90
2018-12-26T09:40:17.408Z,55.30
2018-12-26T09:41:17.387Z,54.70
2018-12-26T09:42:17.360Z,55.50
2018-12-26T09:43:17.331Z,56.60
2018-12-26T09:44:17.303Z,57.20
2018-12-26T09:45:17.279Z,54.70
2018-12-26T09:46:17.252Z,59.00
2018-12-26T09:47:17.226Z,56.30
2018-12-26T09:48:17.202Z,56.30
2018-12-26T09:49:17.172Z,57.70
2018-12-26T09:50:17.147Z,56.60
2018-12-26T09:51:17.129Z,59.50
2018-12-26T09:52:17.109Z,57.30
2018-12-26T09:53:17.083Z,54.90
2018-12-26T09:54:17.052Z,57.70
2018-12-26T09:55:17.018Z,56.40
2018-12-26T09:56:16.995Z,57.80
2018-12-26T09:57:16.965Z,57.20
2018-12-26T09:58:16.942Z,54.10
2018-12-26T09:59:16.913Z,57.80
2018-12-26T10:00:16.886Z,55.80
2018-12-26T10:01:16.861Z,57.50
2018-12-26T10:02:16.841Z,57.70
2018-12-26T10:03:16.812Z,56.10
2018-12-26T10:04:16.792Z,59.20
2018-12-26T10:05:16.761Z,59.50
2018-12-26T10:06:16.733Z,58.80
2018-12-26T10:07:16.710Z,58.60
2018-12-26T10:08:16.700Z,59.70
2018-12-26T10:09:16.662Z,61.30
2018-12-26T10:10:16.626Z,55.10
2018-12-26T10:11:16.602Z,57.70
2018-12-26T10:12:16.579Z,57.80
2018-12-26T10:13:16.559Z,62.90
2018-12-26T10:14:16.525Z,60.80
2018-12-26T10:15:16.498Z,59.80
2018-12-26T10:16:16.477Z,60.00
2018-12-26T10:17:16.446Z,59.60
2018-12-26T10:18:16.418Z,60.40
2018-12-26T10:19:16.396Z,59.60
2018-12-26T10:20:16.370Z,59.20
2018-12-26T10:21:16.348Z,58.70
2018-12-26T10:22:16.316Z,62.80
2018-12-26T10:23:16.295Z,63.10
2018-12-26T10:24:16.264Z,60.40
2018-12-26T10:25:16.243Z,64.30
2018-12-26T10:26:16.211Z,66.20
2018-12-26T10:27:16.185Z,63.00
2018-12-26T10:28:16.168Z,65.60
2018-12-26T10:29:16.138Z,64.60
2018-12-26T10:30:16.106Z,65.00
2018-12-26T10:31:16.083Z,64.00
2018-12-26T10:32:16.057Z,62.30
2018-12-26T10:33:16.029Z,61.30
2018-12-26T10:34:16.002Z,65.20
2018-12-26T10:35:15.978Z,61.50
2018-12-26T10:36:15.955Z,65.20
2018-12-26T10:37:15.932Z,68.00
2018-12-26T10:38:15.909Z,66.70
2018-12-26T10:39:15.889Z,68.00
2018-12-26T10:40:15.847Z,65.00
2018-12-26T10:41:15.834Z,63.60
2018-12-26T10:42:15.812Z,57.00
2018-12-26T10:43:15.770Z,63.60
2018-12-26T10:44:15.747Z,61.40
2018-12-26T10:45:15.718Z,63.70
2018-12-26T10:46:15.704Z,66.50
2018-12-26T10:47:15.665Z,66.30
2018-12-26T10:48:15.648Z,66.60
2018-12-26T10:49:15.616Z,63.70
2018-12-26T10:50:15.595Z,62.60
2018-12-26T10:51:15.568Z,62.80
2018-12-26T10:52:15.544Z,65.10
2018-12-26T10:53:15.524Z,63.40
2018-12-26T10:54:15.487Z,65.00
2018-12-26T10:55:15.458Z,65.70
2018-12-26T10:56:15.434Z,66.20
2018-12-26T10:57:15.414Z,65.40
2018-12-26T10:58:15.383Z,63.50
2018-12-26T10:59:15.358Z,63.80
2018-12-26T11:00:15.338Z,61.90
2018-12-26T11:01:15.312Z,67.30
2018-12-26T11:02:15.284Z,70.40
2018-12-26T11:03:15.255Z,65.00
2018-12-26T11:04:15.226Z,69.10
2018-12-26T11:05:15.209Z,63.00
2018-12-26T11:06:15.174Z,63.50
2018-12-26T11:07:15.147Z,59.60
2018-12-26T11:08:15.135Z,61.60
2018-12-26T11:09:15.100Z,59.00
2018-12-26T11:10:15.080Z,59.50
2018-12-26T11:11:15.043Z,59.20
2018-12-26T11:12:15.032Z,61.80
2018-12-26T11:13:14.994Z,63.10
2018-12-26T11:14:14.970Z,62.00
2018-12-26T11:15:14.944Z,60.50
2018-12-26T11:16:14.924Z,60.40
2018-12-26T11:17:14.889Z,59.60
2018-12-26T11:18:14.873Z,58.20
2018-12-26T11:19:14.850Z,67.90
2018-12-26T11:20:14.813Z,61.50
2018-12-26T11:21:14.791Z,61.50
2018-12-26T11:22:14.763Z,59.60
2018-12-26T11:23:14.732Z,63.90
2018-12-26T11:24:14.708Z,58.40
2018-12-26T11:25:14.689Z,64.70
2018-12-26T11:26:14.669Z,62.40
2018-12-26T11:27:14.629Z,63.90
2018-12-26T11:28:14.605Z,66.50
2018-12-26T11:29:18.580Z,69.20
2018-12-26T11:30:14.563Z,67.60
2018-12-26T11:31:14.525Z,67.50
2018-12-26T11:32:14.503Z,67.40
2018-12-26T11:33:14.475Z,72.70
2018-12-26T11:34:14.447Z,67.70
2018-12-26T11:35:14.421Z,70.20
2018-12-26T11:36:14.400Z,69.60
2018-12-26T11:37:14.378Z,73.50
2018-12-26T11:38:14.346Z,74.60
2018-12-26T11:39:14.329Z,68.90
2018-12-26T11:40:14.295Z,69.60
2018-12-26T11:41:14.269Z,70.00
2018-12-26T11:42:14.256Z,69.90
2018-12-26T11:43:14.221Z,63.30
2018-12-26T11:44:14.192Z,65.50
2018-12-26T11:45:14.177Z,78.70
2018-12-26T11:46:14.141Z,72.20
2018-12-26T11:47:14.121Z,67.20
2018-12-26T11:48:14.092Z,72.10
2018-12-26T11:49:14.068Z,68.70
2018-12-26T11:50:14.048Z,68.90
2018-12-26T11:51:14.009Z,75.70
2018-12-26T11:52:13.984Z,70.40
2018-12-26T11:53:13.958Z,73.00
2018-12-26T11:54:13.946Z,74.40
2018-12-26T11:55:13.909Z,71.20
2018-12-26T11:56:13.892Z,75.10
2018-12-26T11:57:13.859Z,82.20
2018-12-26T11:58:13.840Z,75.80
2018-12-26T11:59:13.818Z,72.70
2018-12-26T12:00:13.781Z,79.60
2018-12-26T12:01:13.753Z,76.10
2018-12-26T12:02:20.569Z,76.80
2018-12-26T12:03:13.707Z,82.20
2018-12-26T12:04:13.683Z,77.30
2018-12-26T12:05:13.648Z,81.40
2018-12-26T12:06:13.628Z,79.40
2018-12-26T12:07:13.597Z,78.90
2018-12-26T12:08:13.618Z,76.50
2018-12-26T12:09:13.546Z,81.30
2018-12-26T12:10:13.533Z,78.20
2018-12-26T12:11:13.493Z,83.40
2018-12-26T12:12:13.466Z,84.70
2018-12-26T12:13:13.449Z,80.80
2018-12-26T12:14:13.427Z,81.70
2018-12-26T12:15:13.390Z,82.80
2018-12-26T12:16:13.376Z,77.80
2018-12-26T12:17:13.339Z,80.40
2018-12-26T12:18:13.316Z,81.00
2018-12-26T12:19:13.288Z,81.50
2018-12-26T12:20:13.266Z,75.90
2018-12-26T12:21:13.237Z,79.70
2018-12-26T12:22:13.214Z,78.20
2018-12-26T12:23:13.188Z,80.30
2018-12-26T12:24:13.170Z,77.40
2018-12-26T12:25:13.137Z,79.50
2018-12-26T12:26:13.118Z,79.90
2018-12-26T12:27:13.088Z,78.10
2018-12-26T12:28:13.058Z,81.80
2018-12-26T12:29:13.038Z,80.00
2018-12-26T12:30:13.014Z,80.00
2018-12-26T12:31:12.980Z,86.10
2018-12-26T12:32:12.956Z,84.30
2018-12-26T12:33:12.936Z,83.60
2018-12-26T12:34:12.918Z,80.80
2018-12-26T12:35:12.883Z,90.80
2018-12-26T12:36:13.130Z,85.50
2018-12-26T12:37:12.828Z,83.70
2018-12-26T12:38:12.799Z,84.70
2018-12-26T12:39:12.775Z,86.20
2018-12-26T12:40:12.747Z,83.30
2018-12-26T12:41:12.724Z,84.10
2018-12-26T12:42:12.697Z,83.30
2018-12-26T12:43:12.669Z,96.70
2018-12-26T12:44:12.646Z,92.30
2018-12-26T12:45:12.621Z,88.40
2018-12-26T12:46:12.617Z,91.80
2018-12-26T12:47:12.581Z,87.40
2018-12-26T12:48:12.559Z,82.60
2018-12-26T12:49:12.517Z,84.90
2018-12-26T12:50:12.494Z,94.20
2018-12-26T12:51:12.467Z,93.20
2018-12-26T12:52:12.444Z,88.70